createdAt,value
2023-11-26T00:00:02.086Z,9.40
2023-11-26T00:05:05.501Z,7.47
2023-11-26T00:10:10.560Z,7.05
2023-11-26T00:15:15.871Z,6.03
2023-11-26T00:20:18.806Z,8.90
2023-11-26T00:25:21.795Z,9.00
2023-11-26T00:30:26.125Z,7.03
2023-11-26T00:35:31.087Z,8.45
2023-11-26T00:40:34.014Z,7.60
2023-11-26T00:45:38.700Z,8.48
2023-11-26T00:50:41.602Z,6.43
2023-11-26T00:55:45.392Z,7.38
2023-11-26T01:00:50.195Z,7.68
2023-11-26T01:05:54.234Z,7.05
2023-11-26T01:10:57.159Z,6.65
2023-11-26T01:16:01.533Z,7.10
2023-11-26T01:21:06.099Z,8.60
2023-11-26T01:26:09.151Z,9.32
2023-11-26T01:31:13.472Z,9.35
2023-11-26T01:36:16.441Z,6.70
2023-11-26T01:41:19.647Z,6.65
2023-11-26T01:46:25.159Z,4.90
2023-11-26T01:51:32.057Z,5.45
2023-11-26T02:01:42.900Z,4.00
2023-11-26T02:06:46.630Z,4.03
2023-11-26T02:11:50.065Z,4.63
2023-11-26T02:16:55.246Z,4.97
2023-11-26T02:21:58.938Z,5.63
2023-11-26T02:27:03.281Z,5.15
2023-11-26T02:32:07.994Z,5.75
2023-11-26T02:37:11.644Z,5.28
2023-11-26T02:42:16.218Z,5.43
2023-11-26T02:47:19.408Z,5.72
2023-11-26T02:52:22.431Z,4.22
2023-11-26T02:57:26.736Z,7.00
2023-11-26T03:02:36.243Z,6.28
2023-11-26T03:07:39.219Z,5.95
2023-11-26T03:13:08.424Z,5.00
2023-11-26T03:18:14.060Z,5.93
2023-11-26T03:23:17.352Z,7.10
2023-11-26T03:28:22.024Z,5.70
2023-11-26T03:33:26.309Z,6.90
2023-11-26T03:38:29.599Z,6.55
2023-11-26T03:43:34.773Z,7.65
2023-11-26T03:48:40.532Z,9.15
2023-11-26T03:53:44.029Z,8.77
2023-11-26T03:58:48.303Z,9.15
2023-11-26T04:03:51.248Z,10.75
2023-11-26T04:08:55.224Z,11.85
2023-11-26T04:14:00.440Z,13.70
2023-11-26T04:19:03.861Z,12.38
2023-11-26T04:24:08.829Z,13.25
2023-11-26T04:29:13.160Z,12.00
2023-11-26T04:34:17.078Z,12.25
2023-11-26T04:39:20.372Z,12.93
2023-11-26T04:44:24.669Z,11.40
2023-11-26T04:49:27.920Z,13.50
2023-11-26T04:54:32.388Z,13.82
2023-11-26T04:59:37.547Z,13.25
2023-11-26T05:04:41.364Z,13.13
2023-11-26T05:09:44.517Z,16.20
2023-11-26T05:14:48.776Z,15.98
2023-11-26T05:19:51.757Z,13.93
2023-11-26T05:24:54.692Z,14.68
2023-11-26T05:29:59.502Z,15.93
2023-11-26T05:35:09.859Z,13.00
2023-11-26T05:40:16.344Z,14.38
2023-11-26T05:45:20.621Z,14.82
2023-11-26T05:50:24.185Z,14.32
2023-11-26T05:55:27.081Z,13.00
2023-11-26T06:00:32.189Z,15.07
2023-11-26T06:05:35.911Z,15.63
2023-11-26T06:10:38.850Z,15.75
2023-11-26T06:15:43.603Z,14.55
2023-11-26T06:20:46.537Z,14.23
2023-11-26T06:25:49.428Z,13.52
2023-11-26T06:30:54.034Z,13.90
2023-11-26T06:35:57.430Z,13.35
2023-11-26T06:41:01.313Z,14.00
2023-11-26T06:46:06.673Z,13.65
2023-11-26T06:51:11.709Z,13.00
2023-11-26T06:56:15.022Z,12.63
2023-11-26T07:01:19.343Z,11.88
2023-11-26T07:06:22.683Z,11.40
2023-11-26T07:11:25.946Z,10.32
2023-11-26T07:16:32.008Z,10.23
2023-11-26T07:21:41.609Z,10.05
2023-11-26T07:26:44.526Z,11.30
2023-11-26T07:31:49.701Z,8.48
2023-11-26T07:36:53.332Z,7.00
2023-11-26T07:41:57.139Z,8.70
2023-11-26T07:47:03.616Z,8.32
2023-11-26T07:52:07.116Z,7.88
2023-11-26T07:57:10.277Z,8.30
2023-11-26T08:02:14.845Z,9.32
2023-11-26T08:07:19.313Z,9.63
2023-11-26T08:12:24.544Z,6.72
2023-11-26T08:17:30.702Z,6.00
2023-11-26T08:22:35.992Z,6.80
2023-11-26T08:27:39.081Z,8.57
2023-11-26T08:32:46.059Z,6.40
2023-11-26T08:37:49.377Z,8.75
2023-11-26T08:42:55.099Z,6.20
2023-11-26T08:48:00.109Z,4.25
2023-11-26T08:53:07.111Z,3.67
2023-11-26T08:58:10.335Z,3.00
2023-11-26T09:03:14.876Z,3.13
2023-11-26T09:08:18.563Z,2.92
2023-11-26T09:13:21.463Z,2.78
2023-11-26T09:18:27.015Z,2.92
2023-11-26T09:23:31.103Z,3.33
2023-11-26T09:28:35.391Z,3.42
2023-11-26T09:33:40.367Z,3.38
2023-11-26T09:38:43.378Z,3.80
2023-11-26T09:43:46.628Z,3.45
2023-11-26T09:48:53.350Z,3.17
2023-11-26T09:59:00.225Z,3.38
2023-11-26T10:04:06.200Z,3.38
2023-11-26T10:09:18.664Z,4.60
2023-11-26T10:14:23.831Z,4.10
2023-11-26T10:19:29.192Z,5.90
2023-11-26T10:24:32.668Z,3.40
2023-11-26T10:29:44.192Z,3.10
2023-11-26T10:34:57.271Z,3.63
2023-11-26T10:40:00.903Z,3.03
2023-11-26T10:45:06.329Z,3.40
2023-11-26T10:50:13.043Z,3.72
2023-11-26T10:55:20.559Z,4.00
2023-11-26T11:00:26.544Z,6.00
2023-11-26T11:05:35.587Z,4.20
2023-11-26T11:10:49.285Z,4.38
2023-11-26T11:15:53.020Z,3.17
2023-11-26T11:21:06.379Z,3.78
2023-11-26T11:26:12.762Z,3.85
2023-11-26T11:31:16.747Z,4.45
2023-11-26T11:36:51.561Z,6.25
2023-11-26T11:42:10.968Z,8.77
2023-11-26T11:47:35.564Z,6.38
2023-11-26T11:52:41.544Z,5.32
2023-11-26T11:57:46.688Z,8.95
2023-11-26T12:02:51.213Z,4.28
2023-11-26T12:07:57.665Z,7.15
2023-11-26T12:13:02.416Z,10.17
2023-11-26T12:18:05.703Z,8.25
2023-11-26T12:23:10.263Z,8.15
2023-11-26T12:28:14.355Z,11.45
2023-11-26T12:33:18.322Z,7.10
2023-11-26T12:38:27.014Z,8.93
2023-11-26T12:43:45.747Z,8.60
2023-11-26T12:48:51.184Z,8.55
2023-11-26T12:53:56.187Z,7.47
2023-11-26T12:59:01.741Z,6.47
2023-11-26T13:04:06.314Z,6.32
2023-11-26T13:09:10.771Z,6.38
2023-11-26T13:14:21.657Z,7.32
2023-11-26T13:19:25.137Z,7.82
2023-11-26T13:24:28.425Z,7.20
2023-11-26T13:29:34.891Z,7.10
2023-11-26T13:34:38.358Z,6.70
2023-11-26T13:39:44.285Z,9.82
2023-11-26T13:44:48.976Z,7.75
2023-11-26T13:49:52.544Z,7.20
2023-11-26T13:54:56.097Z,9.35
2023-11-26T14:00:01.493Z,7.25
2023-11-26T14:05:11.450Z,7.65
2023-11-26T14:10:17.861Z,6.35
2023-11-26T14:15:22.884Z,6.40
2023-11-26T14:20:26.626Z,6.45
2023-11-26T14:25:30.306Z,6.28
2023-11-26T14:30:36.343Z,4.63
2023-11-26T14:35:40.044Z,7.50
2023-11-26T14:40:43.451Z,6.05
2023-11-26T14:45:48.152Z,6.28
2023-11-26T14:50:51.852Z,6.47
2023-11-26T14:55:55.748Z,4.75
2023-11-26T15:01:01.533Z,5.15
2023-11-26T15:06:05.721Z,5.55
2023-11-26T15:11:09.204Z,5.38
2023-11-26T15:16:14.213Z,5.88
2023-11-26T15:21:18.961Z,5.07
2023-11-26T15:26:23.360Z,4.75
2023-11-26T15:31:29.192Z,4.88
2023-11-26T15:36:32.815Z,4.75
2023-11-26T15:41:37.174Z,6.10
2023-11-26T15:46:42.052Z,5.38
2023-11-26T15:51:47.074Z,5.07
2023-11-26T15:56:53.972Z,5.32
2023-11-26T16:07:08.846Z,10.73
2023-11-26T16:17:27.158Z,3.63
2023-11-26T16:22:37.446Z,4.53
2023-11-26T16:27:40.707Z,4.63
2023-11-26T16:32:46.570Z,5.55
2023-11-26T16:37:50.178Z,3.55
2023-11-26T16:42:53.426Z,3.97
2023-11-26T16:47:58.371Z,3.67
2023-11-26T16:53:01.684Z,3.63
2023-11-26T16:58:05.023Z,3.53
2023-11-26T17:03:10.824Z,4.55
2023-11-26T17:08:14.131Z,4.55
2023-11-26T17:13:18.611Z,3.92
2023-11-26T17:18:24.652Z,13.30
2023-11-26T17:23:28.704Z,7.87
2023-11-26T17:28:33.643Z,4.97
2023-11-26T17:33:39.310Z,6.03
2023-11-26T17:38:42.977Z,2.78
2023-11-26T17:43:47.347Z,3.50
2023-11-26T17:48:53.169Z,9.77
2023-11-26T17:53:57.135Z,6.35
2023-11-26T17:59:01.927Z,4.53
2023-11-26T18:04:08.457Z,4.72
2023-11-26T18:09:12.672Z,3.70
2023-11-26T18:14:16.792Z,3.53
2023-11-26T18:19:23.755Z,3.72
2023-11-26T18:24:28.478Z,3.10
2023-11-26T18:29:31.784Z,4.47
2023-11-26T18:34:37.082Z,4.43
2023-11-26T18:39:41.855Z,4.15
2023-11-26T18:44:45.332Z,3.67
2023-11-26T18:49:50.191Z,3.15
2023-11-26T18:54:54.361Z,4.53
2023-11-26T18:59:58.152Z,4.53
2023-11-26T19:05:02.824Z,4.88
2023-11-26T19:10:08.520Z,3.45
2023-11-26T19:15:13.018Z,4.07
2023-11-26T19:20:18.047Z,4.30
2023-11-26T19:25:21.550Z,4.22
2023-11-26T19:30:24.614Z,3.40
2023-11-26T19:35:30.037Z,3.05
2023-11-26T19:40:34.375Z,4.55
2023-11-26T19:45:38.581Z,5.47
2023-11-26T19:50:43.782Z,7.63
2023-11-26T19:55:47.297Z,5.78
2023-11-26T20:00:51.180Z,5.88
2023-11-26T20:05:55.711Z,6.95
2023-11-26T20:10:59.229Z,5.20
2023-11-26T20:16:02.612Z,6.72
2023-11-26T20:21:09.253Z,6.43
2023-11-26T20:26:19.848Z,5.15
2023-11-26T20:31:24.056Z,6.60
2023-11-26T20:36:29.669Z,7.38
2023-11-26T20:41:33.203Z,6.72
2023-11-26T20:46:37.095Z,11.75
2023-11-26T20:51:42.745Z,7.63
2023-11-26T20:56:46.366Z,8.10
2023-11-26T21:01:49.790Z,8.00
2023-11-26T21:06:55.140Z,14.18
2023-11-26T21:11:58.596Z,8.57
2023-11-26T21:17:01.981Z,7.05
2023-11-26T21:22:06.796Z,11.95
2023-11-26T21:27:10.462Z,10.73
2023-11-26T21:32:14.897Z,7.05
2023-11-26T21:37:19.692Z,5.75
2023-11-26T21:42:22.650Z,4.88
2023-11-26T21:47:25.774Z,5.70
2023-11-26T21:52:30.135Z,8.02
2023-11-26T21:57:33.072Z,8.68
2023-11-26T22:02:36.178Z,8.60
2023-11-26T22:07:40.676Z,7.32
2023-11-26T22:12:43.612Z,7.50
2023-11-26T22:17:46.571Z,5.30
2023-11-26T22:22:51.084Z,4.97
2023-11-26T22:27:54.017Z,5.75
2023-11-26T22:32:57.049Z,4.95
2023-11-26T22:38:01.326Z,4.50
2023-11-26T22:43:04.287Z,5.05
2023-11-26T22:48:07.754Z,4.10
2023-11-26T22:53:12.947Z,4.43
2023-11-26T22:58:16.082Z,3.80
2023-11-26T23:03:19.170Z,4.57
2023-11-26T23:08:23.797Z,5.53
2023-11-26T23:13:28.936Z,3.97
2023-11-26T23:18:35.329Z,4.10
2023-11-26T23:23:49.137Z,3.63
2023-11-26T23:28:55.277Z,4.60
2023-11-26T23:33:58.326Z,4.45
2023-11-26T23:39:04.536Z,3.72
2023-11-26T23:44:08.471Z,3.70
2023-11-26T23:49:11.597Z,4.25
2023-11-26T23:54:16.906Z,3.20
2023-11-26T23:59:19.795Z,3.45
